sensor_id;sensor_type;location;lat;lon;timestamp;pressure;altitude;pressure_sealevel;temperature;humidity
41686;BME280;27370;42.764;23.432;2023-03-22T00:00:14;95202.63;;;7.62;100.00
41686;BME280;27370;42.764;23.432;2023-03-22T00:02:41;95224.13;;;7.73;100.00
41686;BME280;27370;42.764;23.432;2023-03-22T00:05:07;95216.00;;;7.76;100.00
41686;BME280;27370;42.764;23.432;2023-03-22T00:07:33;95218.66;;;7.80;100.00
41686;BME280;27370;42.764;23.432;2023-03-22T00:09:59;95205.94;;;7.80;100.00
41686;BME280;27370;42.764;23.432;2023-03-22T00:12:24;95222.88;;;7.81;100.00
41686;BME280;27370;42.764;23.432;2023-03-22T00:14:50;95214.81;;;7.81;100.00
41686;BME280;27370;42.764;23.432;2023-03-22T00:17:16;95218.25;;;7.81;100.00
41686;BME280;27370;42.764;23.432;2023-03-22T00:19:42;95214.84;;;7.77;100.00
41686;BME280;27370;42.764;23.432;2023-03-22T00:22:09;95199.56;;;7.60;100.00
41686;BME280;27370;42.764;23.432;2023-03-22T00:24:35;95218.34;;;7.67;100.00
41686;BME280;27370;42.764;23.432;2023-03-22T00:27:01;95214.53;;;7.64;100.00
41686;BME280;27370;42.764;23.432;2023-03-22T00:29:28;95204.88;;;7.67;100.00
41686;BME280;27370;42.764;23.432;2023-03-22T00:31:53;95205.25;;;7.69;100.00
41686;BME280;27370;42.764;23.432;2023-03-22T00:34:20;95194.91;;;7.64;100.00
41686;BME280;27370;42.764;23.432;2023-03-22T00:36:46;95191.88;;;7.58;100.00
41686;BME280;27370;42.764;23.432;2023-03-22T00:39:12;95196.88;;;7.60;100.00
41686;BME280;27370;42.764;23.432;2023-03-22T00:41:38;95190.00;;;7.52;100.00
41686;BME280;27370;42.764;23.432;2023-03-22T00:44:04;95185.75;;;7.54;100.00
41686;BME280;27370;42.764;23.432;2023-03-22T00:46:29;95188.00;;;7.59;100.00
41686;BME280;27370;42.764;23.432;2023-03-22T00:48:55;95180.75;;;7.53;100.00
41686;BME280;27370;42.764;23.432;2023-03-22T00:51:20;95197.28;;;7.55;100.00
41686;BME280;27370;42.764;23.432;2023-03-22T00:53:46;95184.25;;;7.50;100.00
41686;BME280;27370;42.764;23.432;2023-03-22T00:56:15;95191.94;;;7.51;100.00
41686;BME280;27370;42.764;23.432;2023-03-22T00:58:44;95182.34;;;7.43;100.00
41686;BME280;27370;42.764;23.432;2023-03-22T01:01:11;95189.63;;;7.50;100.00
41686;BME280;27370;42.764;23.432;2023-03-22T01:03:38;95187.72;;;7.47;100.00
41686;BME280;27370;42.764;23.432;2023-03-22T01:06:05;95185.06;;;7.40;100.00
41686;BME280;27370;42.764;23.432;2023-03-22T01:08:31;95178.53;;;7.41;100.00
41686;BME280;27370;42.764;23.432;2023-03-22T01:10:57;95179.63;;;7.50;100.00
41686;BME280;27370;42.764;23.432;2023-03-22T01:13:23;95181.19;;;7.48;100.00
41686;BME280;27370;42.764;23.432;2023-03-22T01:15:49;95165.81;;;7.41;100.00
41686;BME280;27370;42.764;23.432;2023-03-22T01:18:16;95178.09;;;7.49;100.00
41686;BME280;27370;42.764;23.432;2023-03-22T01:20:41;95173.47;;;7.50;100.00
41686;BME280;27370;42.764;23.432;2023-03-22T01:23:07;95180.72;;;7.56;100.00
41686;BME280;27370;42.764;23.432;2023-03-22T01:25:33;95181.94;;;7.52;100.00
41686;BME280;27370;42.764;23.432;2023-03-22T01:27:58;95181.16;;;7.51;100.00
41686;BME280;27370;42.764;23.432;2023-03-22T01:30:27;95178.84;;;7.53;100.00
41686;BME280;27370;42.764;23.432;2023-03-22T01:32:53;95171.94;;;7.49;100.00
41686;BME280;27370;42.764;23.432;2023-03-22T01:35:18;95161.97;;;7.42;100.00
41686;BME280;27370;42.764;23.432;2023-03-22T01:37:44;95168.13;;;7.43;100.00
41686;BME280;27370;42.764;23.432;2023-03-22T01:40:12;95162.38;;;7.41;100.00
41686;BME280;27370;42.764;23.432;2023-03-22T01:42:38;95164.34;;;7.33;100.00
41686;BME280;27370;42.764;23.432;2023-03-22T01:50:08;95159.84;;;7.16;100.00
41686;BME280;27370;42.764;23.432;2023-03-22T01:52:34;95166.00;;;7.16;100.00
41686;BME280;27370;42.764;23.432;2023-03-22T01:55:07;95158.75;;;7.10;100.00
41686;BME280;27370;42.764;23.432;2023-03-22T01:57:41;95163.00;;;7.03;100.00
41686;BME280;27370;42.764;23.432;2023-03-22T02:00:13;95166.09;;;7.02;100.00
41686;BME280;27370;42.764;23.432;2023-03-22T02:02:56;95157.63;;;7.03;100.00
41686;BME280;27370;42.764;23.432;2023-03-22T02:05:32;95171.44;;;7.09;100.00
41686;BME280;27370;42.764;23.432;2023-03-22T02:08:00;95167.59;;;7.06;100.00
41686;BME280;27370;42.764;23.432;2023-03-22T02:10:31;95169.91;;;7.01;100.00
41686;BME280;27370;42.764;23.432;2023-03-22T02:13:50;95173.03;;;6.96;100.00
41686;BME280;27370;42.764;23.432;2023-03-22T02:19:23;95176.88;;;6.95;100.00
41686;BME280;27370;42.764;23.432;2023-03-22T02:24:37;95179.16;;;7.00;100.00
41686;BME280;27370;42.764;23.432;2023-03-22T02:27:19;95179.91;;;7.00;100.00
41686;BME280;27370;42.764;23.432;2023-03-22T02:35:40;95170.81;;;6.84;100.00
41686;BME280;27370;42.764;23.432;2023-03-22T02:49:46;95191.47;;;6.97;100.00
41686;BME280;27370;42.764;23.432;2023-03-22T02:52:29;95190.75;;;6.90;100.00
41686;BME280;27370;42.764;23.432;2023-03-22T02:58:06;95195.31;;;7.00;100.00
41686;BME280;27370;42.764;23.432;2023-03-22T03:00:35;95187.63;;;6.98;100.00
41686;BME280;27370;42.764;23.432;2023-03-22T03:03:11;95196.09;;;6.97;100.00
41686;BME280;27370;42.764;23.432;2023-03-22T03:05:45;95198.72;;;7.11;100.00
41686;BME280;27370;42.764;23.432;2023-03-22T03:08:14;95193.41;;;6.97;100.00
41686;BME280;27370;42.764;23.432;2023-03-22T03:10:42;95193.38;;;7.00;100.00
41686;BME280;27370;42.764;23.432;2023-03-22T03:13:14;95198.72;;;7.11;100.00
41686;BME280;27370;42.764;23.432;2023-03-22T03:15:41;95196.81;;;7.08;100.00
41686;BME280;27370;42.764;23.432;2023-03-22T03:21:20;95201.03;;;7.09;100.00
41686;BME280;27370;42.764;23.432;2023-03-22T03:23:55;95198.00;;;7.03;100.00
41686;BME280;27370;42.764;23.432;2023-03-22T03:26:32;95197.59;;;7.05;100.00
41686;BME280;27370;42.764;23.432;2023-03-22T03:29:10;95199.13;;;7.10;100.00
41686;BME280;27370;42.764;23.432;2023-03-22T03:34:51;95198.31;;;7.16;100.00
41686;BME280;27370;42.764;23.432;2023-03-22T03:37:37;95194.16;;;7.04;100.00
41686;BME280;27370;42.764;23.432;2023-03-22T03:40:11;95194.50;;;7.10;100.00
41686;BME280;27370;42.764;23.432;2023-03-22T03:42:43;95199.84;;;7.17;100.00
41686;BME280;27370;42.764;23.432;2023-03-22T03:45:13;95200.66;;;7.11;100.00
41686;BME280;27370;42.764;23.432;2023-03-22T03:47:42;95214.47;;;7.16;100.00
41686;BME280;27370;42.764;23.432;2023-03-22T03:50:10;95204.50;;;7.10;100.00
41686;BME280;27370;42.764;23.432;2023-03-22T03:52:36;95197.97;;;7.07;100.00
41686;BME280;27370;42.764;23.432;2023-03-22T03:55:02;95215.28;;;7.10;100.00
41686;BME280;27370;42.764;23.432;2023-03-22T03:57:31;95208.78;;;7.03;100.00
41686;BME280;27370;42.764;23.432;2023-03-22T03:59:56;95209.06;;;7.16;100.00
41686;BME280;27370;42.764;23.432;2023-03-22T04:02:40;95207.19;;;7.10;100.00
41686;BME280;27370;42.764;23.432;2023-03-22T04:05:08;95207.22;;;6.99;100.00
41686;BME280;27370;42.764;23.432;2023-03-22T04:07:34;95206.88;;;6.97;100.00
41686;BME280;27370;42.764;23.432;2023-03-22T04:10:00;95216.06;;;7.06;100.00
41686;BME280;27370;42.764;23.432;2023-03-22T04:12:30;95219.53;;;7.03;100.00
41686;BME280;27370;42.764;23.432;2023-03-22T04:15:10;95222.22;;;7.07;100.00
41686;BME280;27370;42.764;23.432;2023-03-22T04:17:37;95224.91;;;7.00;100.00
41686;BME280;27370;42.764;23.432;2023-03-22T04:20:06;95226.47;;;7.04;100.00
41686;BME280;27370;42.764;23.432;2023-03-22T04:22:33;95228.75;;;7.06;100.00
41686;BME280;27370;42.764;23.432;2023-03-22T04:25:10;95227.63;;;7.03;100.00
41686;BME280;27370;42.764;23.432;2023-03-22T04:27:40;95231.84;;;7.04;100.00
41686;BME280;27370;42.764;23.432;2023-03-22T04:30:12;95229.91;;;7.05;100.00
41686;BME280;27370;42.764;23.432;2023-03-22T04:32:56;95230.31;;;7.00;100.00
41686;BME280;27370;42.764;23.432;2023-03-22T04:35:33;95236.09;;;7.02;100.00
41686;BME280;27370;42.764;23.432;2023-03-22T04:37:59;95229.94;;;6.98;100.00
41686;BME280;27370;42.764;23.432;2023-03-22T04:40:27;95224.16;;;7.03;100.00
41686;BME280;27370;42.764;23.432;2023-03-22T04:42:59;95236.09;;;7.02;100.00
41686;BME280;27370;42.764;23.432;2023-03-22T04:45:45;95232.59;;;7.01;100.00
41686;BME280;27370;42.764;23.432;2023-03-22T04:48:16;95229.94;;;6.98;100.00
41686;BME280;27370;42.764;23.432;2023-03-22T04:50:44;95229.16;;;7.04;100.00
41686;BME280;27370;42.764;23.432;2023-03-22T04:53:10;95240.63;;;7.12;100.00
41686;BME280;27370;42.764;23.432;2023-03-22T04:55:37;95239.09;;;7.11;100.00
41686;BME280;27370;42.764;23.432;2023-03-22T04:58:02;95243.75;;;7.07;100.00
41686;BME280;27370;42.764;23.432;2023-03-22T05:00:28;95249.47;;;7.13;100.00
41686;BME280;27370;42.764;23.432;2023-03-22T05:02:56;95251.44;;;7.05;100.00
41686;BME280;27370;42.764;23.432;2023-03-22T05:05:31;95249.13;;;7.11;100.00
41686;BME280;27370;42.764;23.432;2023-03-22T05:07:57;95248.72;;;7.12;100.00
41686;BME280;27370;42.764;23.432;2023-03-22T05:10:23;95243.38;;;7.05;100.00
41686;BME280;27370;42.764;23.432;2023-03-22T05:12:49;95241.47;;;6.98;100.00
41686;BME280;27370;42.764;23.432;2023-03-22T05:15:37;95255.31;;;7.04;100.00
41686;BME280;27370;42.764;23.432;2023-03-22T05:18:03;95256.00;;;7.15;100.00
41686;BME280;27370;42.764;23.432;2023-03-22T05:20:29;95267.53;;;7.16;100.00
41686;BME280;27370;42.764;23.432;2023-03-22T05:23:07;95261.00;;;7.17;100.00
41686;BME280;27370;42.764;23.432;2023-03-22T05:25:35;95257.94;;;7.11;100.00
41686;BME280;27370;42.764;23.432;2023-03-22T05:28:01;95276.34;;;7.23;100.00
41686;BME280;27370;42.764;23.432;2023-03-22T05:30:48;95284.44;;;7.20;100.00
41686;BME280;27370;42.764;23.432;2023-03-22T05:33:26;95279.81;;;7.24;100.00
41686;BME280;27370;42.764;23.432;2023-03-22T05:35:55;95269.03;;;7.27;100.00
41686;BME280;27370;42.764;23.432;2023-03-22T05:38:21;95275.94;;;7.32;100.00
41686;BME280;27370;42.764;23.432;2023-03-22T05:40:50;95281.25;;;7.43;100.00
41686;BME280;27370;42.764;23.432;2023-03-22T05:43:16;95276.25;;;7.41;100.00
41686;BME280;27370;42.764;23.432;2023-03-22T05:45:46;95276.56;;;7.57;100.00
41686;BME280;27370;42.764;23.432;2023-03-22T05:48:32;95279.97;;;7.65;100.00
41686;BME280;27370;42.764;23.432;2023-03-22T05:50:58;95279.22;;;7.61;100.00
41686;BME280;27370;42.764;23.432;2023-03-22T05:53:28;95288.72;;;7.83;100.00
41686;BME280;27370;42.764;23.432;2023-03-22T05:56:04;95284.59;;;7.64;100.00
41686;BME280;27370;42.764;23.432;2023-03-22T05:58:34;95292.63;;;7.75;100.00
41686;BME280;27370;42.764;23.432;2023-03-22T06:01:08;95293.41;;;7.72;100.00
41686;BME280;27370;42.764;23.432;2023-03-22T06:03:44;95299.13;;;7.81;100.00
41686;BME280;27370;42.764;23.432;2023-03-22T06:06:30;95299.50;;;7.83;100.00
41686;BME280;27370;42.764;23.432;2023-03-22T06:09:06;95294.16;;;7.76;100.00
41686;BME280;27370;42.764;23.432;2023-03-22T06:11:31;95302.56;;;7.85;100.00
41686;BME280;27370;42.764;23.432;2023-03-22T06:14:01;95305.59;;;7.94;100.00
41686;BME280;27370;42.764;23.432;2023-03-22T06:16:37;95310.53;;;8.03;100.00
41686;BME280;27370;42.764;23.432;2023-03-22T06:19:02;95313.13;;;8.14;100.00
41686;BME280;27370;42.764;23.432;2023-03-22T06:21:28;95301.97;;;8.12;100.00
41686;BME280;27370;42.764;23.432;2023-03-22T06:23:54;95310.06;;;8.15;100.00
41686;BME280;27370;42.764;23.432;2023-03-22T06:26:21;95308.53;;;8.11;100.00
41686;BME280;27370;42.764;23.432;2023-03-22T06:28:47;95312.34;;;8.17;100.00
41686;BME280;27370;42.764;23.432;2023-03-22T06:31:12;95309.28;;;8.15;100.00
41686;BME280;27370;42.764;23.432;2023-03-22T06:33:47;95314.28;;;8.16;100.00
41686;BME280;27370;42.764;23.432;2023-03-22T06:36:35;95304.72;;;8.05;100.00
41686;BME280;27370;42.764;23.432;2023-03-22T06:39:07;95316.84;;;8.30;100.00
41686;BME280;27370;42.764;23.432;2023-03-22T06:41:33;95321.44;;;8.37;100.00
41686;BME280;27370;42.764;23.432;2023-03-22T06:43:59;95329.09;;;8.46;100.00
41686;BME280;27370;42.764;23.432;2023-03-22T06:46:40;95318.94;;;8.61;100.00
41686;BME280;27370;42.764;23.432;2023-03-22T06:49:14;95329.63;;;8.71;100.00
41686;BME280;27370;42.764;23.432;2023-03-22T06:51:41;95334.34;;;8.64;100.00
41686;BME280;27370;42.764;23.432;2023-03-22T06:54:07;95337.00;;;8.67;100.00
41686;BME280;27370;42.764;23.432;2023-03-22T06:56:32;95326.47;;;8.80;100.00
41686;BME280;27370;42.764;23.432;2023-03-22T06:58:59;95330.69;;;8.84;100.00
41686;BME280;27370;42.764;23.432;2023-03-22T07:01:25;95339.41;;;8.96;100.00
41686;BME280;27370;42.764;23.432;2023-03-22T07:03:51;95340.91;;;9.00;100.00
41686;BME280;27370;42.764;23.432;2023-03-22T07:06:20;95345.81;;;9.12;100.00
41686;BME280;27370;42.764;23.432;2023-03-22T07:08:48;95341.94;;;9.13;100.00
41686;BME280;27370;42.764;23.432;2023-03-22T07:11:17;95339.28;;;9.10;100.00
41686;BME280;27370;42.764;23.432;2023-03-22T07:13:47;95352.44;;;9.08;100.00
41686;BME280;27370;42.764;23.432;2023-03-22T07:16:17;95355.63;;;8.96;100.00
41686;BME280;27370;42.764;23.432;2023-03-22T07:18:55;95353.03;;;8.85;100.00
41686;BME280;27370;42.764;23.432;2023-03-22T07:21:22;95360.03;;;8.79;100.00
41686;BME280;27370;42.764;23.432;2023-03-22T07:23:53;95344.38;;;8.63;100.00
41686;BME280;27370;42.764;23.432;2023-03-22T07:26:23;95354.78;;;8.65;100.00
41686;BME280;27370;42.764;23.432;2023-03-22T07:28:52;95359.41;;;8.64;100.00
41686;BME280;27370;42.764;23.432;2023-03-22T07:31:20;95362.13;;;8.61;100.00
41686;BME280;27370;42.764;23.432;2023-03-22T07:33:57;95364.06;;;8.60;100.00
41686;BME280;27370;42.764;23.432;2023-03-22T07:36:25;95362.13;;;8.57;100.00
41686;BME280;27370;42.764;23.432;2023-03-22T07:38:52;95359.06;;;8.55;100.00
41686;BME280;27370;42.764;23.432;2023-03-22T07:41:25;95360.22;;;8.57;100.00
41686;BME280;27370;42.764;23.432;2023-03-22T07:44:09;95365.59;;;8.57;100.00
41686;BME280;27370;42.764;23.432;2023-03-22T07:46:39;95364.44;;;8.62;100.00
41686;BME280;27370;42.764;23.432;2023-03-22T07:49:28;95365.16;;;8.66;100.00
41686;BME280;27370;42.764;23.432;2023-03-22T07:52:02;95380.63;;;8.58;100.00
41686;BME280;27370;42.764;23.432;2023-03-22T07:54:28;95372.94;;;8.61;100.00
41686;BME280;27370;42.764;23.432;2023-03-22T07:56:53;95389.84;;;8.65;100.00
41686;BME280;27370;42.764;23.432;2023-03-22T07:59:19;95384.44;;;8.68;100.00
41686;BME280;27370;42.764;23.432;2023-03-22T08:01:45;95392.00;;;8.80;100.00
41686;BME280;27370;42.764;23.432;2023-03-22T08:04:30;95384.69;;;8.81;100.00
41686;BME280;27370;42.764;23.432;2023-03-22T08:07:05;95386.59;;;8.84;100.00
41686;BME280;27370;42.764;23.432;2023-03-22T08:09:36;95384.28;;;8.86;100.00
41686;BME280;27370;42.764;23.432;2023-03-22T08:12:01;95389.28;;;8.87;100.00
41686;BME280;27370;42.764;23.432;2023-03-22T08:14:28;95385.69;;;8.98;100.00
41686;BME280;27370;42.764;23.432;2023-03-22T08:16:53;95385.50;;;9.15;100.00
41686;BME280;27370;42.764;23.432;2023-03-22T08:19:22;95393.06;;;9.31;100.00
41686;BME280;27370;42.764;23.432;2023-03-22T08:21:48;95387.31;;;9.29;100.00
41686;BME280;27370;42.764;23.432;2023-03-22T08:24:28;95393.84;;;9.32;100.00
41686;BME280;27370;42.764;23.432;2023-03-22T08:27:03;95393.00;;;9.38;100.00
41686;BME280;27370;42.764;23.432;2023-03-22T08:29:40;95403.75;;;9.42;100.00
41686;BME280;27370;42.764;23.432;2023-03-22T08:32:06;95410.06;;;9.32;100.00
41686;BME280;27370;42.764;23.432;2023-03-22T08:34:40;95390.38;;;9.28;100.00
41686;BME280;27370;42.764;23.432;2023-03-22T08:37:06;95406.88;;;9.40;100.00
41686;BME280;27370;42.764;23.432;2023-03-22T08:39:33;95396.88;;;9.37;100.00
41686;BME280;27370;42.764;23.432;2023-03-22T08:42:25;95406.25;;;9.26;100.00
41686;BME280;27370;42.764;23.432;2023-03-22T08:44:50;95401.69;;;9.19;100.00
41686;BME280;27370;42.764;23.432;2023-03-22T08:47:17;95401.59;;;9.30;100.00
41686;BME280;27370;42.764;23.432;2023-03-22T08:49:45;95401.50;;;9.37;100.00
41686;BME280;27370;42.764;23.432;2023-03-22T08:52:21;95398.13;;;9.26;100.00
41686;BME280;27370;42.764;23.432;2023-03-22T08:55:00;95405.66;;;9.45;100.00
41686;BME280;27370;42.764;23.432;2023-03-22T08:57:44;95415.91;;;9.61;100.00
41686;BME280;27370;42.764;23.432;2023-03-22T09:00:34;95410.03;;;9.66;100.00
41686;BME280;27370;42.764;23.432;2023-03-22T09:03:09;95410.75;;;9.70;100.00
41686;BME280;27370;42.764;23.432;2023-03-22T09:05:35;95418.63;;;9.91;100.00
41686;BME280;27370;42.764;23.432;2023-03-22T09:08:01;95413.19;;;9.91;100.00
41686;BME280;27370;42.764;23.432;2023-03-22T09:10:33;95412.22;;;10.08;100.00
41686;BME280;27370;42.764;23.432;2023-03-22T09:12:59;95420.78;;;10.03;100.00
41686;BME280;27370;42.764;23.432;2023-03-22T09:15:25;95427.00;;;10.00;100.00
41686;BME280;27370;42.764;23.432;2023-03-22T09:18:11;95422.44;;;9.94;100.00
41686;BME280;27370;42.764;23.432;2023-03-22T09:20:37;95426.81;;;9.84;100.00
41686;BME280;27370;42.764;23.432;2023-03-22T09:23:05;95424.38;;;9.93;100.00
41686;BME280;27370;42.764;23.432;2023-03-22T09:25:30;95429.88;;;9.86;100.00
41686;BME280;27370;42.764;23.432;2023-03-22T09:27:56;95417.09;;;9.90;100.00
41686;BME280;27370;42.764;23.432;2023-03-22T09:30:22;95423.91;;;10.02;100.00
41686;BME280;27370;42.764;23.432;2023-03-22T09:32:47;95420.38;;;9.74;100.00
41686;BME280;27370;42.764;23.432;2023-03-22T09:35:15;95435.06;;;9.73;100.00
41686;BME280;27370;42.764;23.432;2023-03-22T09:37:52;95431.59;;;10.03;100.00
41686;BME280;27370;42.764;23.432;2023-03-22T09:40:20;95440.84;;;10.06;100.00
41686;BME280;27370;42.764;23.432;2023-03-22T09:42:51;95424.63;;;10.06;100.00
41686;BME280;27370;42.764;23.432;2023-03-22T09:45:22;95431.28;;;10.28;100.00
41686;BME280;27370;42.764;23.432;2023-03-22T09:47:56;95427.94;;;10.17;100.00
41686;BME280;27370;42.764;23.432;2023-03-22T09:50:27;95429.09;;;10.16;100.00
41686;BME280;27370;42.764;23.432;2023-03-22T09:52:54;95417.66;;;10.05;100.00
41686;BME280;27370;42.764;23.432;2023-03-22T10:04:04;95423.22;;;10.52;100.00
41686;BME280;27370;42.764;23.432;2023-03-22T10:06:32;95418.34;;;10.43;100.00
41686;BME280;27370;42.764;23.432;2023-03-22T10:11:48;95437.16;;;10.50;100.00
41686;BME280;27370;42.764;23.432;2023-03-22T10:17:07;95442.53;;;10.54;100.00
41686;BME280;27370;42.764;23.432;2023-03-22T10:20:04;95447.13;;;10.57;100.00
41686;BME280;27370;42.764;23.432;2023-03-22T10:22:30;95453.22;;;10.64;100.00
41686;BME280;27370;42.764;23.432;2023-03-22T10:24:58;95445.38;;;10.12;100.00
41686;BME280;27370;42.764;23.432;2023-03-22T10:27:27;95445.03;;;10.41;100.00
41686;BME280;27370;42.764;23.432;2023-03-22T10:30:20;95445.47;;;10.36;100.00
41686;BME280;27370;42.764;23.432;2023-03-22T10:33:04;95439.94;;;10.47;100.00
41686;BME280;27370;42.764;23.432;2023-03-22T10:35:36;95442.59;;;10.50;100.00
41686;BME280;27370;42.764;23.432;2023-03-22T10:38:04;95444.13;;;10.51;100.00
41686;BME280;27370;42.764;23.432;2023-03-22T10:40:34;95437.38;;;10.36;100.00
41686;BME280;27370;42.764;23.432;2023-03-22T10:43:31;95438.25;;;10.29;100.00
41686;BME280;27370;42.764;23.432;2023-03-22T10:46:00;95435.53;;;10.29;100.00
41686;BME280;27370;42.764;23.432;2023-03-22T10:48:32;95426.00;;;10.21;100.00
41686;BME280;27370;42.764;23.432;2023-03-22T10:51:00;95419.03;;;10.17;100.00
41686;BME280;27370;42.764;23.432;2023-03-22T10:53:42;95435.53;;;10.29;100.00
41686;BME280;27370;42.764;23.432;2023-03-22T10:56:15;95435.53;;;10.29;100.00
41686;BME280;27370;42.764;23.432;2023-03-22T10:58:43;95429.81;;;10.24;100.00
41686;BME280;27370;42.764;23.432;2023-03-22T11:01:35;95426.13;;;10.37;100.00
41686;BME280;27370;42.764;23.432;2023-03-22T11:04:11;95437.47;;;10.29;100.00
41686;BME280;27370;42.764;23.432;2023-03-22T11:06:59;95436.25;;;10.33;100.00
41686;BME280;27370;42.764;23.432;2023-03-22T11:09:24;95437.38;;;10.36;100.00
41686;BME280;27370;42.764;23.432;2023-03-22T11:11:54;95435.59;;;10.26;100.00
41686;BME280;27370;42.764;23.432;2023-03-22T11:14:31;95430.63;;;10.21;100.00
41686;BME280;27370;42.764;23.432;2023-03-22T11:19:36;95426.09;;;10.10;100.00
41686;BME280;27370;42.764;23.432;2023-03-22T11:22:06;95426.03;;;10.14;100.00
41686;BME280;27370;42.764;23.432;2023-03-22T11:24:41;95426.50;;;10.09;100.00
41686;BME280;27370;42.764;23.432;2023-03-22T11:27:17;95419.31;;;9.99;100.00
41686;BME280;27370;42.764;23.432;2023-03-22T11:29:46;95420.84;;;10.00;100.00
41686;BME280;27370;42.764;23.432;2023-03-22T11:32:26;95418.53;;;9.98;100.00
41686;BME280;27370;42.764;23.432;2023-03-22T11:35:03;95416.00;;;9.84;100.00
41686;BME280;27370;42.764;23.432;2023-03-22T11:37:29;95422.53;;;9.87;100.00
41686;BME280;27370;42.764;23.432;2023-03-22T11:40:00;95415.97;;;9.88;100.00
41686;BME280;27370;42.764;23.432;2023-03-22T11:42:26;95418.22;;;9.93;100.00
41686;BME280;27370;42.764;23.432;2023-03-22T11:44:53;95416.19;;;10.00;100.00
41686;BME280;27370;42.764;23.432;2023-03-22T11:47:20;95418.97;;;9.93;100.00
41686;BME280;27370;42.764;23.432;2023-03-22T11:49:50;95415.19;;;9.87;100.00
41686;BME280;27370;42.764;23.432;2023-03-22T11:52:22;95407.75;;;9.95;100.00
41686;BME280;27370;42.764;23.432;2023-03-22T11:54:49;95407.31;;;10.00;100.00
41686;BME280;27370;42.764;23.432;2023-03-22T11:57:19;95402.97;;;10.06;100.00
41686;BME280;27370;42.764;23.432;2023-03-22T12:00:02;95404.66;;;10.27;100.00
41686;BME280;27370;42.764;23.432;2023-03-22T12:02:56;95399.75;;;10.45;100.00
41686;BME280;27370;42.764;23.432;2023-03-22T12:05:26;95405.88;;;10.49;100.00
41686;BME280;27370;42.764;23.432;2023-03-22T12:08:01;95409.34;;;10.73;100.00
41686;BME280;27370;42.764;23.432;2023-03-22T12:10:37;95404.88;;;10.86;100.00
41686;BME280;27370;42.764;23.432;2023-03-22T12:13:09;95405.28;;;11.08;100.00
41686;BME280;27370;42.764;23.432;2023-03-22T12:15:41;95417.09;;;11.41;100.00
41686;BME280;27370;42.764;23.432;2023-03-22T12:18:16;95423.88;;;11.49;100.00
41686;BME280;27370;42.764;23.432;2023-03-22T12:20:48;95423.50;;;11.27;100.00
41686;BME280;27370;42.764;23.432;2023-03-22T12:23:20;95419.06;;;11.17;100.00
41686;BME280;27370;42.764;23.432;2023-03-22T12:28:29;95412.19;;;11.13;100.00
41686;BME280;27370;42.764;23.432;2023-03-22T12:30:57;95415.31;;;10.88;100.00
41686;BME280;27370;42.764;23.432;2023-03-22T12:35:50;95400.00;;;10.78;100.00
41686;BME280;27370;42.764;23.432;2023-03-22T12:40:43;95412.03;;;10.50;100.00
41686;BME280;27370;42.764;23.432;2023-03-22T12:43:37;95417.00;;;10.55;100.00
41686;BME280;27370;42.764;23.432;2023-03-22T12:46:04;95403.16;;;10.22;100.00
41686;BME280;27370;42.764;23.432;2023-03-22T12:48:38;95406.47;;;10.33;100.00
41686;BME280;27370;42.764;23.432;2023-03-22T12:51:07;95414.75;;;10.23;100.00
41686;BME280;27370;42.764;23.432;2023-03-22T12:53:43;95407.47;;;10.16;100.00
41686;BME280;27370;42.764;23.432;2023-03-22T12:56:12;95415.38;;;10.03;100.00
41686;BME280;27370;42.764;23.432;2023-03-22T12:58:39;95409.16;;;10.06;100.00
41686;BME280;27370;42.764;23.432;2023-03-22T13:03:54;95396.16;;;9.94;100.00
41686;BME280;27370;42.764;23.432;2023-03-22T13:09:14;95395.34;;;9.67;100.00
41686;BME280;27370;42.764;23.432;2023-03-22T13:11:46;95407.75;;;9.64;100.00
41686;BME280;27370;42.764;23.432;2023-03-22T13:17:31;95405.50;;;9.90;100.00
41686;BME280;27370;42.764;23.432;2023-03-22T13:30:51;95366.59;;;8.78;100.00
41686;BME280;27370;42.764;23.432;2023-03-22T13:33:24;95385.84;;;8.80;100.00
41686;BME280;27370;42.764;23.432;2023-03-22T13:35:57;95380.44;;;8.80;100.00
41686;BME280;27370;42.764;23.432;2023-03-22T13:38:26;95379.56;;;8.94;100.00
41686;BME280;27370;42.764;23.432;2023-03-22T13:43:34;95372.72;;;8.85;100.00
41686;BME280;27370;42.764;23.432;2023-03-22T13:48:50;95376.97;;;9.20;100.00
41686;BME280;27370;42.764;23.432;2023-03-22T14:01:41;95385.84;;;9.55;100.00
41686;BME280;27370;42.764;23.432;2023-03-22T14:04:24;95379.44;;;9.42;100.00
41686;BME280;27370;42.764;23.432;2023-03-22T14:07:06;95374.47;;;9.37;100.00
41686;BME280;27370;42.764;23.432;2023-03-22T14:09:37;95380.84;;;9.54;100.00
41686;BME280;27370;42.764;23.432;2023-03-22T14:12:20;95384.44;;;9.77;100.00
41686;BME280;27370;42.764;23.432;2023-03-22T14:14:52;95384.19;;;9.65;100.00
41686;BME280;27370;42.764;23.432;2023-03-22T14:19:56;95384.50;;;9.70;100.00
41686;BME280;27370;42.764;23.432;2023-03-22T14:22:34;95382.03;;;9.83;100.00
41686;BME280;27370;42.764;23.432;2023-03-22T14:25:02;95379.97;;;9.91;100.00
41686;BME280;27370;42.764;23.432;2023-03-22T14:27:32;95390.66;;;10.01;100.00
41686;BME280;27370;42.764;23.432;2023-03-22T14:29:58;95380.50;;;10.09;100.00
41686;BME280;27370;42.764;23.432;2023-03-22T14:32:25;95378.41;;;10.24;100.00
41686;BME280;27370;42.764;23.432;2023-03-22T14:35:08;95382.53;;;10.32;100.00
41686;BME280;27370;42.764;23.432;2023-03-22T14:37:37;95376.91;;;10.19;100.00
41686;BME280;27370;42.764;23.432;2023-03-22T14:40:15;95375.22;;;10.29;100.00
41686;BME280;27370;42.764;23.432;2023-03-22T14:42:42;95387.41;;;10.13;100.00
41686;BME280;27370;42.764;23.432;2023-03-22T14:45:19;95383.88;;;10.17;100.00
41686;BME280;27370;42.764;23.432;2023-03-22T14:47:48;95385.03;;;10.16;100.00